Time;durP1;ratioP1;P1;durP2;ratioP2;P2;SDS_P1;SDS_P2;PMS_P1;PMS_P2;Temp;Humidity;BMP_temperature;BMP_pressure;BME280_temperature;BME280_humidity;BME280_pressure;Samples;Min_cycle;Max_cycle;Signal;HPM_P1;HPM_P2
2022/03/08 00:00:40;;;;;;;30.27;14.67;;;-1.90;99.90;;;;;;4159095;28;20297;-50
2022/03/08 00:02:42;;;;;;;33.93;15.10;;;-1.90;99.90;;;;;;4158619;28;20270;-73
2022/03/08 00:04:43;;;;;;;30.27;14.57;;;-2.00;99.90;;;;;;4156789;28;20302;-75
2022/03/08 00:06:44;;;;;;;28.97;15.33;;;-2.10;99.90;;;;;;4157896;28;20287;-75
2022/03/08 00:08:46;;;;;;;27.87;15.10;;;-2.10;99.90;;;;;;4147325;28;20321;-68
2022/03/08 00:13:03;;;;;;;29.33;15.33;;;-2.00;99.90;;;;;;4179047;23;20379;-70
2022/03/08 00:15:08;;;;;;;33.70;15.90;;;-2.10;99.90;;;;;;4173380;28;20270;-73
2022/03/08 00:17:09;;;;;;;32.10;16.07;;;-2.10;99.90;;;;;;4193032;28;20716;-51
2022/03/08 00:19:11;;;;;;;32.97;16.20;;;-2.10;99.90;;;;;;4178882;28;20393;-70
2022/03/08 00:21:12;;;;;;;30.97;15.57;;;-2.00;99.90;;;;;;4190765;28;21152;-73
2022/03/08 00:23:13;;;;;;;32.83;14.53;;;-2.00;99.90;;;;;;4173098;28;20305;-63
2022/03/08 00:25:16;;;;;;;32.70;15.97;;;-2.00;99.90;;;;;;4188720;28;20289;-85
2022/03/08 00:27:17;;;;;;;33.70;16.23;;;-2.00;99.90;;;;;;4174897;28;20286;-62
2022/03/08 00:29:18;;;;;;;34.83;16.03;;;-2.00;99.90;;;;;;4176284;28;20286;-60
2022/03/08 00:31:19;;;;;;;32.83;14.70;;;-2.00;99.90;;;;;;4174847;28;20316;-64
2022/03/08 00:33:20;;;;;;;32.30;16.90;;;-2.00;99.90;;;;;;4195729;22;20301;-50
2022/03/08 00:35:24;;;;;;;30.87;15.57;;;-2.00;99.90;;;;;;4178737;28;20332;-62
2022/03/08 00:37:25;;;;;;;32.83;15.43;;;-2.00;99.90;;;;;;4180953;28;20281;-67
2022/03/08 00:39:27;;;;;;;31.60;16.47;;;-2.10;99.90;;;;;;4186383;28;20742;-63
2022/03/08 00:41:28;;;;;;;37.43;16.17;;;-2.00;99.90;;;;;;4179108;28;20266;-77
2022/03/08 00:43:29;;;;;;;36.63;16.60;;;-2.00;99.90;;;;;;4186504;28;20289;-80
2022/03/08 00:45:30;;;;;;;30.43;15.60;;;-2.00;99.90;;;;;;4174858;28;20347;-86
2022/03/08 00:47:31;;;;;;;32.23;15.67;;;-1.90;99.90;;;;;;4188560;28;20281;-66
2022/03/08 00:49:32;;;;;;;31.80;15.50;;;-1.90;99.90;;;;;;4190955;28;20266;-73
2022/03/08 00:51:34;;;;;;;37.80;17.60;;;-1.90;99.90;;;;;;4183960;28;20332;-74
2022/03/08 00:53:35;;;;;;;35.33;16.33;;;-1.90;99.90;;;;;;4174794;28;20270;-80
2022/03/08 00:55:37;;;;;;;34.87;15.87;;;-1.90;99.90;;;;;;4175886;28;21230;-55
2022/03/08 00:57:38;;;;;;;29.50;15.57;;;-1.80;99.90;;;;;;4175103;28;20731;-83
2022/03/08 00:59:39;;;;;;;32.70;15.63;;;-1.90;99.90;;;;;;4194264;23;20772;-84
2022/03/08 01:01:40;;;;;;;39.90;17.40;;;-1.90;99.90;;;;;;4189713;28;20269;-68
2022/03/08 01:03:41;;;;;;;34.53;17.03;;;-1.90;99.90;;;;;;4183790;28;20269;-71
2022/03/08 01:05:42;;;;;;;32.87;16.83;;;-1.90;99.90;;;;;;4174913;28;20282;-52
2022/03/08 01:07:44;;;;;;;29.23;15.50;;;-1.90;99.90;;;;;;4175828;28;20343;-71
2022/03/08 01:10:06;;;;;;;35.07;16.73;;;-1.90;99.90;;;;;;4192354;28;20727;-74
2022/03/08 01:12:08;;;;;;;35.00;16.70;;;-1.90;99.90;;;;;;4191335;28;20675;-68
2022/03/08 01:14:10;;;;;;;31.93;16.17;;;-1.90;99.90;;;;;;4189874;28;20338;-65
2022/03/08 01:18:22;;;;;;;31.67;16.50;;;-1.90;99.90;;;;;;4252488;22;20696;-56
2022/03/08 01:20:24;;;;;;;33.67;16.77;;;-2.00;99.90;;;;;;4190435;28;20318;-65
2022/03/08 01:22:25;;;;;;;32.17;16.70;;;-2.00;99.90;;;;;;4191697;28;20269;-46
2022/03/08 01:24:28;;;;;;;34.63;16.63;;;-2.00;99.90;;;;;;4201315;22;20311;-48
2022/03/08 01:26:30;;;;;;;33.47;16.90;;;-2.00;99.90;;;;;;4177734;28;20344;-88
2022/03/08 01:28:31;;;;;;;34.30;16.20;;;-2.00;99.90;;;;;;4190610;28;20971;-77
2022/03/08 01:30:33;;;;;;;31.30;15.73;;;-2.00;99.90;;;;;;4192110;28;20273;-60
2022/03/08 01:32:34;;;;;;;37.37;17.07;;;-2.00;99.90;;;;;;4190016;28;20761;-69
2022/03/08 01:34:35;;;;;;;35.43;18.00;;;-2.10;99.90;;;;;;4191296;28;20295;-69
2022/03/08 01:36:37;;;;;;;32.87;16.47;;;-2.10;99.90;;;;;;4190240;28;20331;-69
2022/03/08 01:38:38;;;;;;;35.73;16.43;;;-2.10;99.90;;;;;;4188567;28;20281;-65
2022/03/08 01:40:39;;;;;;;35.90;16.20;;;-2.10;99.90;;;;;;4190086;28;20754;-53
2022/03/08 01:42:42;;;;;;;32.87;16.27;;;-2.10;99.90;;;;;;4191686;28;20269;-66
2022/03/08 01:44:46;;;;;;;33.53;17.53;;;-2.10;99.90;;;;;;4187989;28;20297;-68
2022/03/08 01:46:47;;;;;;;33.60;15.83;;;-2.10;99.90;;;;;;4176409;28;20368;-50
2022/03/08 01:48:50;;;;;;;38.27;17.03;;;-2.10;99.90;;;;;;4179963;28;20249;-65
2022/03/08 01:50:51;;;;;;;37.10;17.63;;;-2.10;99.90;;;;;;4191574;28;20652;-71
2022/03/08 01:52:53;;;;;;;34.63;17.40;;;-2.10;99.90;;;;;;4184735;28;20332;-47
2022/03/08 01:54:54;;;;;;;35.50;16.70;;;-2.20;99.90;;;;;;4175520;28;20262;-93
2022/03/08 01:56:55;;;;;;;35.60;16.73;;;-2.20;99.90;;;;;;4193124;28;20279;-68
2022/03/08 01:58:56;;;;;;;35.30;16.97;;;-2.20;99.90;;;;;;4190479;28;20283;-63
2022/03/08 02:00:58;;;;;;;30.83;15.70;;;-2.10;99.90;;;;;;4180471;28;20327;-75
2022/03/08 02:02:59;;;;;;;36.50;17.90;;;-2.10;99.90;;;;;;4173281;28;20323;-76
2022/03/08 02:05:00;;;;;;;32.80;16.20;;;-2.10;99.90;;;;;;4181535;28;20688;-69
2022/03/08 02:07:02;;;;;;;35.57;18.10;;;-2.10;99.90;;;;;;4189568;28;20307;-62
2022/03/08 02:09:03;;;;;;;33.83;16.53;;;-2.10;99.90;;;;;;4190879;28;20270;-59
2022/03/08 02:11:04;;;;;;;37.87;16.80;;;-2.10;99.90;;;;;;4171206;28;20316;-66
2022/03/08 02:13:05;;;;;;;33.63;17.10;;;-2.20;99.90;;;;;;4189894;28;20261;-57
2022/03/08 02:15:18;;;;;;;34.50;17.30;;;-2.20;99.90;;;;;;4489978;22;20266;-68
2022/03/08 02:17:19;;;;;;;36.50;17.97;;;-2.20;99.90;;;;;;4179814;28;20290;-54
2022/03/08 02:19:21;;;;;;;35.17;16.90;;;-2.20;99.90;;;;;;4188970;28;20261;-49
2022/03/08 02:21:22;;;;;;;35.33;16.47;;;-2.20;99.90;;;;;;4190794;28;20806;-55
2022/03/08 02:23:23;;;;;;;37.73;17.43;;;-2.20;99.90;;;;;;4175264;28;20307;-46
2022/03/08 02:25:24;;;;;;;32.73;16.47;;;-2.20;99.90;;;;;;4174492;28;20340;-64
2022/03/08 02:27:25;;;;;;;36.40;17.17;;;-2.30;99.90;;;;;;4154925;28;20373;-69
2022/03/08 02:29:27;;;;;;;40.60;18.63;;;-2.20;99.90;;;;;;4176649;28;20439;-66
2022/03/08 02:31:28;;;;;;;34.53;15.73;;;-2.20;99.90;;;;;;4173875;28;20281;-64
2022/03/08 02:33:29;;;;;;;34.00;16.70;;;-2.20;99.90;;;;;;4184770;28;20297;-64
2022/03/08 02:35:31;;;;;;;34.33;16.20;;;-2.20;99.90;;;;;;4182465;28;20714;-55
2022/03/08 02:37:41;;;;;;;35.20;18.17;;;-2.20;99.90;;;;;;4186566;28;20274;-62
2022/03/08 02:39:43;;;;;;;36.20;17.50;;;-2.20;99.90;;;;;;4171648;28;20254;-68
2022/03/08 02:41:45;;;;;;;37.50;17.13;;;-2.20;99.90;;;;;;4176386;28;20266;-59
2022/03/08 02:43:46;;;;;;;39.73;17.73;;;-2.20;99.90;;;;;;4165594;28;20650;-66
2022/03/08 02:45:47;;;;;;;33.43;16.70;;;-2.20;99.90;;;;;;4183826;28;20804;-58
2022/03/08 02:47:48;;;;;;;34.53;15.53;;;-2.20;99.90;;;;;;4185373;28;20741;-65
2022/03/08 02:49:49;;;;;;;36.03;16.87;;;-2.10;99.90;;;;;;4189786;28;20269;-68
2022/03/08 02:54:10;;;;;;;38.83;18.20;;;-2.10;99.90;;;;;;4179241;22;20388;-71
2022/03/08 02:56:11;;;;;;;34.23;15.90;;;-2.10;99.90;;;;;;4154878;28;20278;-57
2022/03/08 02:58:13;;;;;;;41.73;18.07;;;-2.10;99.90;;;;;;4190291;22;20806;-62
2022/03/08 03:00:15;;;;;;;35.70;17.70;;;-2.20;99.90;;;;;;4173019;28;21050;-75
2022/03/08 03:02:17;;;;;;;34.27;16.50;;;-2.20;99.90;;;;;;4174533;28;20324;-87
2022/03/08 03:04:18;;;;;;;30.07;15.97;;;-2.20;99.90;;;;;;4164062;28;20860;-61
2022/03/08 03:06:19;;;;;;;34.40;16.27;;;-2.20;99.90;;;;;;4158032;28;20329;-67
2022/03/08 03:08:20;;;;;;;35.30;16.17;;;-2.20;99.90;;;;;;4157102;28;20283;-75
2022/03/08 03:10:23;;;;;;;30.10;14.73;;;-2.30;99.90;;;;;;4156628;28;20632;-67
2022/03/08 03:12:24;;;;;;;37.90;17.83;;;-2.20;99.90;;;;;;4156520;28;20818;-61
2022/03/08 03:14:25;;;;;;;37.77;16.17;;;-2.20;99.90;;;;;;4157831;28;20262;-68
2022/03/08 03:16:27;;;;;;;37.43;16.67;;;-2.10;99.90;;;;;;4157091;28;20263;-73
2022/03/08 03:18:28;;;;;;;32.77;15.63;;;-2.10;99.90;;;;;;4164222;28;20352;-70
2022/03/08 03:20:29;;;;;;;36.73;17.70;;;-2.10;99.90;;;;;;4159158;28;20324;-61
2022/03/08 03:22:30;;;;;;;36.70;16.20;;;-2.10;99.90;;;;;;4160398;28;20270;-64
2022/03/08 03:24:32;;;;;;;36.00;17.20;;;-2.10;99.90;;;;;;4167523;28;20999;-67
2022/03/08 03:26:33;;;;;;;35.47;16.80;;;-2.00;99.90;;;;;;4162282;28;21170;-69
2022/03/08 03:28:34;;;;;;;38.73;18.50;;;-2.10;99.90;;;;;;4155746;28;20279;-73
2022/03/08 03:30:35;;;;;;;32.73;14.77;;;-2.10;99.90;;;;;;4168189;28;20696;-67
2022/03/08 03:32:37;;;;;;;34.60;16.73;;;-2.00;99.90;;;;;;4175507;28;20344;-71
2022/03/08 03:34:38;;;;;;;67.53;26.10;;;-2.00;99.90;;;;;;4174249;28;20764;-70
2022/03/08 03:36:39;;;;;;;67.37;25.80;;;-2.00;99.90;;;;;;4166467;28;20332;-68
2022/03/08 03:38:40;;;;;;;63.03;26.43;;;-2.00;99.90;;;;;;4159426;28;20282;-66
2022/03/08 03:40:41;;;;;;;39.43;19.50;;;-2.00;99.90;;;;;;4169180;28;20757;-67
2022/03/08 03:42:43;;;;;;;37.97;18.90;;;-2.10;99.90;;;;;;4171363;28;20660;-64
2022/03/08 03:44:44;;;;;;;39.87;21.53;;;-2.10;99.90;;;;;;4161426;28;20275;-73
2022/03/08 03:46:46;;;;;;;45.97;23.17;;;-2.00;99.90;;;;;;4157145;28;20345;-71
2022/03/08 03:48:47;;;;;;;58.27;34.37;;;-2.00;99.90;;;;;;4163122;28;20274;-79
2022/03/08 03:50:49;;;;;;;48.57;26.10;;;-2.00;99.90;;;;;;4159883;28;20805;-61
2022/03/08 03:52:50;;;;;;;55.10;28.63;;;-2.00;99.90;;;;;;4162091;28;20266;-64
2022/03/08 03:54:51;;;;;;;44.63;22.33;;;-2.00;99.90;;;;;;4176276;28;20271;-84
2022/03/08 03:56:53;;;;;;;60.10;29.83;;;-1.90;99.90;;;;;;4173147;28;20290;-92
2022/03/08 03:58:54;;;;;;;51.03;30.00;;;-2.00;99.90;;;;;;4172141;28;20270;-68
2022/03/08 04:00:55;;;;;;;72.77;39.57;;;-1.90;99.90;;;;;;4163143;28;20324;-49
2022/03/08 04:02:56;;;;;;;72.47;38.67;;;-2.00;99.90;;;;;;4158196;28;20283;-61
2022/03/08 04:04:57;;;;;;;60.63;32.00;;;-2.00;99.90;;;;;;4158637;28;20305;-56
2022/03/08 04:06:59;;;;;;;62.33;34.67;;;-2.00;99.90;;;;;;4159690;28;20360;-63
2022/03/08 04:09:01;;;;;;;50.37;26.73;;;-2.00;99.90;;;;;;4159372;28;20457;-75
2022/03/08 04:11:02;;;;;;;39.33;20.07;;;-2.00;99.90;;;;;;4164688;28;20271;-44
2022/03/08 04:13:04;;;;;;;39.67;21.00;;;-2.00;99.90;;;;;;4158795;28;20488;-59
2022/03/08 04:15:06;;;;;;;47.63;24.37;;;-2.00;99.90;;;;;;4158523;28;20344;-63
2022/03/08 04:17:07;;;;;;;39.80;19.40;;;-2.00;99.90;;;;;;4157760;28;20337;-50
2022/03/08 04:19:08;;;;;;;39.33;19.70;;;-2.00;99.90;;;;;;4174814;28;20278;-49
2022/03/08 04:21:09;;;;;;;36.93;17.60;;;-2.00;99.90;;;;;;4157407;28;20348;-61
2022/03/08 04:23:11;;;;;;;36.43;16.63;;;-2.10;99.90;;;;;;4158462;28;20397;-60
2022/03/08 04:27:22;;;;;;;;;;;-2.20;99.90;;;;;;4168340;22;20306;-78
2022/03/08 04:29:23;;;;;;;;;;;-2.20;99.90;;;;;;4158469;28;19952;-71
2022/03/08 04:31:24;;;;;;;48.03;24.00;;;-2.30;99.90;;;;;;4158880;28;20379;-80
2022/03/08 04:33:26;;;;;;;61.67;30.83;;;-2.30;99.90;;;;;;4158865;28;20095;-67
2022/03/08 04:35:27;;;;;;;58.47;29.93;;;-2.30;99.90;;;;;;4159098;28;20270;-64
2022/03/08 04:37:28;;;;;;;55.83;29.17;;;-2.50;99.90;;;;;;4274475;23;20364;-70
2022/03/08 04:39:29;;;;;;;48.53;24.93;;;-2.40;99.90;;;;;;4192443;28;20350;-60
2022/03/08 04:41:30;;;;;;;60.10;31.67;;;-2.50;99.90;;;;;;4191467;28;20319;-68
2022/03/08 04:43:33;;;;;;;63.13;33.00;;;-2.40;99.90;;;;;;4190892;28;20277;-78
2022/03/08 04:45:34;;;;;;;47.20;25.00;;;-2.40;99.90;;;;;;4180726;28;20301;-52
2022/03/08 04:47:36;;;;;;;43.27;23.40;;;-2.40;99.90;;;;;;4176661;28;20270;-50
2022/03/08 04:49:38;;;;;;;46.90;23.97;;;-2.40;99.90;;;;;;4175159;28;20336;-50
2022/03/08 04:51:39;;;;;;;49.10;24.27;;;-2.40;99.90;;;;;;4158607;28;20278;-68
2022/03/08 04:53:40;;;;;;;42.33;22.73;;;-2.40;99.90;;;;;;4175151;28;20327;-87
2022/03/08 04:55:44;;;;;;;37.47;19.90;;;-2.40;99.90;;;;;;4176567;28;20328;-53
2022/03/08 04:57:46;;;;;;;39.63;20.50;;;-2.40;99.90;;;;;;4174316;28;20364;-83
2022/03/08 04:59:47;;;;;;;36.33;20.20;;;-2.40;99.90;;;;;;4175474;28;20278;-70
2022/03/08 05:01:49;;;;;;;37.53;17.53;;;-2.40;99.90;;;;;;4170921;28;20270;-75
2022/03/08 05:03:50;;;;;;;35.50;18.97;;;-2.40;99.90;;;;;;4191959;28;20273;-65
2022/03/08 05:07:59;;;;;;;36.97;18.63;;;-2.40;99.90;;;;;;4379062;22;20358;-66
2022/03/08 05:10:01;;;;;;;36.30;20.03;;;-2.40;99.90;;;;;;4189208;28;20273;-78
2022/03/08 05:12:02;;;;;;;33.37;16.77;;;-2.40;99.90;;;;;;4191302;28;20351;-57
2022/03/08 05:14:03;;;;;;;35.53;15.87;;;-2.40;99.90;;;;;;4185395;28;20268;-80
2022/03/08 05:16:05;;;;;;;31.40;15.90;;;-2.50;99.90;;;;;;4173883;28;20270;-55
2022/03/08 05:18:06;;;;;;;36.63;18.50;;;-2.40;99.90;;;;;;4173566;28;20254;-65
2022/03/08 05:20:08;;;;;;;34.83;16.80;;;-2.40;99.90;;;;;;4173352;28;20270;-72
2022/03/08 05:22:09;;;;;;;41.70;20.47;;;-2.40;99.90;;;;;;4174050;28;20266;-64
2022/03/08 05:24:10;;;;;;;42.20;19.27;;;-2.40;99.90;;;;;;4173667;28;20344;-83
2022/03/08 05:26:12;;;;;;;36.17;17.63;;;-2.40;99.90;;;;;;4185257;28;20328;-72
2022/03/08 05:28:13;;;;;;;36.77;18.30;;;-2.40;99.90;;;;;;4190304;28;20285;-52
2022/03/08 05:30:14;;;;;;;37.13;17.37;;;-2.40;99.90;;;;;;4191361;28;20315;-63
2022/03/08 05:32:15;;;;;;;38.53;19.70;;;-2.40;99.90;;;;;;4180507;28;20311;-66
2022/03/08 05:34:16;;;;;;;40.03;20.07;;;-2.40;99.90;;;;;;4175880;28;20372;-55
2022/03/08 05:36:17;;;;;;;40.73;20.33;;;-2.40;99.90;;;;;;4173114;28;20327;-57
2022/03/08 05:38:19;;;;;;;38.50;18.00;;;-2.30;99.90;;;;;;4182493;28;20347;-49
2022/03/08 05:40:20;;;;;;;43.57;20.23;;;-2.20;99.90;;;;;;4179783;28;20699;-65
2022/03/08 05:42:21;;;;;;;41.83;20.33;;;-2.00;99.90;;;;;;4188770;28;20757;-58
2022/03/08 05:44:22;;;;;;;45.87;21.97;;;-2.10;99.90;;;;;;4186637;28;20635;-50
2022/03/08 05:46:23;;;;;;;41.67;19.43;;;-2.00;99.90;;;;;;4180938;28;20301;-62
2022/03/08 05:48:25;;;;;;;42.80;18.97;;;-2.00;99.90;;;;;;4190282;28;20262;-61
2022/03/08 05:50:26;;;;;;;41.07;20.30;;;-2.10;99.90;;;;;;4537482;22;20717;-71
2022/03/08 05:52:27;;;;;;;43.27;20.43;;;-2.10;99.90;;;;;;4150753;28;20349;-56
2022/03/08 05:54:28;;;;;;;36.57;18.30;;;-2.10;99.90;;;;;;4153575;28;20278;-66
2022/03/08 05:56:29;;;;;;;46.63;19.67;;;-2.10;99.90;;;;;;4155624;28;20619;-60
2022/03/08 05:58:30;;;;;;;38.83;18.87;;;-2.10;99.90;;;;;;4155797;28;20271;-52
2022/03/08 06:00:31;;;;;;;36.50;18.27;;;-2.10;99.90;;;;;;4138619;28;20810;-64
2022/03/08 06:02:33;;;;;;;40.80;18.50;;;-2.00;99.90;;;;;;4156368;28;20301;-56
2022/03/08 06:04:34;;;;;;;37.70;19.00;;;-2.00;99.90;;;;;;4156851;28;20267;-57
2022/03/08 06:06:35;;;;;;;39.67;19.13;;;-1.90;99.90;;;;;;4155869;28;20360;-65
2022/03/08 06:08:36;;;;;;;37.83;17.70;;;-1.80;99.90;;;;;;4156359;28;20281;-64
2022/03/08 06:10:38;;;;;;;37.03;17.63;;;-1.60;99.90;;;;;;4155386;28;21204;-58
2022/03/08 06:12:40;;;;;;;37.23;17.67;;;-1.40;99.90;;;;;;4156697;28;20313;-52
2022/03/08 06:14:42;;;;;;;34.33;16.97;;;-1.30;99.90;;;;;;4155514;28;20270;-49
2022/03/08 06:16:43;;;;;;;42.37;18.80;;;-0.70;99.90;;;;;;4138504;28;20283;-53
2022/03/08 06:18:44;;;;;;;43.50;19.67;;;0.10;99.90;;;;;;4156280;28;20255;-64
2022/03/08 06:20:45;;;;;;;40.80;18.33;;;0.80;99.90;;;;;;4155910;28;20263;-66
2022/03/08 06:22:46;;;;;;;38.60;18.80;;;1.20;99.90;;;;;;4156381;28;20315;-67
2022/03/08 06:24:47;;;;;;;37.97;17.60;;;1.30;99.90;;;;;;4154994;28;20731;-50
2022/03/08 06:26:48;;;;;;;38.10;17.57;;;1.50;99.90;;;;;;4157332;28;20836;-60
2022/03/08 06:28:54;;;;;;;42.10;18.50;;;1.50;99.90;;;;;;4155949;28;20320;-52
2022/03/08 06:30:55;;;;;;;37.20;17.70;;;1.60;99.90;;;;;;4156734;28;20337;-58
2022/03/08 06:32:56;;;;;;;44.23;19.30;;;2.00;99.90;;;;;;4155082;28;20335;-51
2022/03/08 06:34:57;;;;;;;33.87;17.43;;;2.10;99.90;;;;;;4157399;28;20316;-63
2022/03/08 06:36:59;;;;;;;37.13;18.03;;;2.10;99.90;;;;;;4154752;28;20297;-66
2022/03/08 06:39:01;;;;;;;39.07;18.83;;;2.20;99.90;;;;;;4157929;28;20278;-57
2022/03/08 06:41:02;;;;;;;38.90;19.60;;;2.30;99.90;;;;;;4156389;28;20321;-66
2022/03/08 06:43:03;;;;;;;35.53;17.97;;;2.30;99.90;;;;;;4157280;28;20289;-51
2022/03/08 06:45:06;;;;;;;40.07;20.63;;;2.20;99.90;;;;;;4155762;28;20262;-60
2022/03/08 06:47:09;;;;;;;37.53;18.80;;;2.10;99.90;;;;;;4156448;28;21048;-48
2022/03/08 06:49:13;;;;;;;34.83;18.30;;;2.20;99.90;;;;;;4156296;28;20263;-63
2022/03/08 06:51:15;;;;;;;35.77;17.50;;;2.30;99.90;;;;;;4155714;28;20337;-66
2022/03/08 06:53:16;;;;;;;34.60;18.17;;;2.20;99.90;;;;;;4155625;28;20279;-59
2022/03/08 06:55:17;;;;;;;33.43;17.57;;;2.00;99.90;;;;;;4155965;28;20278;-54
2022/03/08 06:57:18;;;;;;;32.37;17.97;;;1.90;99.90;;;;;;4156813;28;20278;-62
2022/03/08 06:59:19;;;;;;;28.40;16.07;;;2.00;99.90;;;;;;4155900;28;20267;-64
2022/03/08 07:01:20;;;;;;;30.70;16.10;;;2.10;99.90;;;;;;4156879;28;20325;-61
2022/03/08 07:03:21;;;;;;;32.37;16.43;;;2.20;99.90;;;;;;4155753;28;20733;-55
2022/03/08 07:05:23;;;;;;;28.40;15.23;;;2.40;99.90;;;;;;4159299;28;20259;-60
2022/03/08 07:07:24;;;;;;;31.37;15.50;;;2.60;99.90;;;;;;4158960;28;20352;-54
2022/03/08 07:09:25;;;;;;;27.67;14.67;;;2.90;99.90;;;;;;4159705;28;20293;-50
2022/03/08 07:11:26;;;;;;;28.27;14.87;;;3.00;99.90;;;;;;4158172;28;20346;-53
2022/03/08 07:13:27;;;;;;;26.37;14.27;;;3.10;99.90;;;;;;4159239;28;20672;-50
2022/03/08 07:15:28;;;;;;;29.33;14.57;;;3.30;99.90;;;;;;4158685;28;20294;-58
2022/03/08 07:17:30;;;;;;;30.80;16.10;;;3.20;99.90;;;;;;4158861;28;20267;-47
2022/03/08 07:19:31;;;;;;;31.60;14.67;;;3.30;99.90;;;;;;4158608;28;20281;-53
2022/03/08 07:21:32;;;;;;;30.07;14.63;;;3.40;99.90;;;;;;4158970;28;20320;-56
2022/03/08 07:23:33;;;;;;;32.70;14.37;;;3.50;99.90;;;;;;4159300;28;20332;-65
2022/03/08 07:25:34;;;;;;;31.97;15.13;;;3.60;99.90;;;;;;4158657;28;20417;-45
2022/03/08 07:27:35;;;;;;;26.40;14.77;;;3.50;99.90;;;;;;4159242;28;20302;-57
2022/03/08 07:29:37;;;;;;;33.27;15.00;;;3.30;99.90;;;;;;4157927;28;21062;-58
2022/03/08 07:31:38;;;;;;;33.77;14.87;;;3.00;99.90;;;;;;4158482;28;20274;-60
2022/03/08 07:33:41;;;;;;;31.07;14.23;;;2.90;99.90;;;;;;4157196;28;20423;-63
2022/03/08 07:35:42;;;;;;;27.13;13.57;;;2.80;99.90;;;;;;4159627;28;20333;-60
2022/03/08 07:37:43;;;;;;;29.00;14.77;;;2.70;99.90;;;;;;4158774;28;20259;-49
2022/03/08 07:39:44;;;;;;;29.77;14.40;;;2.70;99.90;;;;;;4141069;28;20597;-66
2022/03/08 07:41:45;;;;;;;24.00;13.73;;;2.70;99.90;;;;;;4157404;28;20271;-50
2022/03/08 07:43:46;;;;;;;34.90;15.17;;;2.70;99.90;;;;;;4158768;28;20352;-46
2022/03/08 07:45:47;;;;;;;37.03;13.90;;;2.80;99.90;;;;;;4157853;28;20279;-63
2022/03/08 07:47:49;;;;;;;27.23;14.00;;;2.80;99.90;;;;;;4158663;28;20312;-63
2022/03/08 07:49:50;;;;;;;30.13;15.13;;;2.80;99.90;;;;;;4158828;28;20340;-62
2022/03/08 07:51:51;;;;;;;27.67;13.37;;;2.70;99.90;;;;;;4158768;28;20384;-56
2022/03/08 07:53:53;;;;;;;24.77;12.93;;;2.60;99.90;;;;;;4158764;28;20255;-65
2022/03/08 07:55:54;;;;;;;26.90;12.80;;;2.50;99.90;;;;;;4157572;28;20792;-61
2022/03/08 07:57:59;;;;;;;28.87;12.80;;;2.30;99.90;;;;;;4159431;28;20743;-55
2022/03/08 08:00:00;;;;;;;23.83;13.03;;;2.40;99.90;;;;;;4158059;28;20282;-59
2022/03/08 08:02:02;;;;;;;22.40;12.10;;;2.50;99.90;;;;;;4158500;28;20283;-53
2022/03/08 08:04:03;;;;;;;23.57;12.33;;;2.50;99.90;;;;;;4158297;28;20266;-51
2022/03/08 08:06:06;;;;;;;32.57;16.50;;;2.60;99.90;;;;;;4159305;28;20768;-56
2022/03/08 08:08:07;;;;;;;38.37;16.27;;;2.80;99.90;;;;;;4157039;28;20341;-51
2022/03/08 08:10:08;;;;;;;37.93;15.87;;;2.70;99.90;;;;;;4159287;28;20325;-48
2022/03/08 08:12:09;;;;;;;39.13;18.37;;;2.60;99.90;;;;;;4157715;28;21018;-60
2022/03/08 08:14:11;;;;;;;40.20;18.87;;;2.80;99.90;;;;;;4159151;28;20352;-50
2022/03/08 08:16:12;;;;;;;28.03;15.07;;;3.10;99.90;;;;;;4156863;28;20344;-61
2022/03/08 08:18:13;;;;;;;30.37;15.37;;;3.30;99.90;;;;;;4140171;28;20288;-47
2022/03/08 08:20:14;;;;;;;38.73;19.23;;;3.50;99.90;;;;;;4157177;28;20311;-63
2022/03/08 08:22:15;;;;;;;50.03;23.40;;;3.70;99.90;;;;;;4158489;28;20393;-48
2022/03/08 08:24:16;;;;;;;43.73;18.70;;;3.80;99.90;;;;;;4157964;28;20270;-62
2022/03/08 08:26:18;;;;;;;30.40;16.27;;;3.70;99.90;;;;;;4157106;28;20388;-66
2022/03/08 08:28:19;;;;;;;35.43;16.53;;;3.50;99.20;;;;;;4158613;28;21110;-59
2022/03/08 08:30:20;;;;;;;34.30;16.13;;;3.60;99.70;;;;;;4138831;28;20337;-61
2022/03/08 08:32:21;;;;;;;29.77;15.97;;;3.50;99.80;;;;;;4158930;28;20402;-55
2022/03/08 08:36:38;;;;;;;35.73;17.37;;;3.40;99.10;;;;;;4161920;22;20360;-54
2022/03/08 08:38:39;;;;;;;40.20;18.83;;;3.40;99.70;;;;;;4157488;28;20861;-62
2022/03/08 08:40:40;;;;;;;37.30;17.60;;;3.50;99.80;;;;;;4159395;28;20321;-48
2022/03/08 08:42:42;;;;;;;36.37;16.77;;;3.50;99.60;;;;;;4157557;28;20348;-55
2022/03/08 08:44:43;;;;;;;27.17;11.93;;;3.50;99.20;;;;;;4159051;28;20662;-50
2022/03/08 08:46:44;;;;;;;29.27;11.47;;;3.60;99.00;;;;;;4156583;28;20349;-69
2022/03/08 08:48:45;;;;;;;30.63;12.37;;;3.60;97.60;;;;;;4158842;28;20263;-46
2022/03/08 08:50:46;;;;;;;27.27;11.83;;;3.90;97.80;;;;;;4157342;28;20286;-64
2022/03/08 08:52:48;;;;;;;18.33;9.80;;;4.20;97.50;;;;;;4158401;28;20279;-43
2022/03/08 08:54:49;;;;;;;23.33;12.90;;;4.40;96.30;;;;;;4157272;28;20275;-52
2022/03/08 08:56:50;;;;;;;25.40;12.37;;;4.50;96.70;;;;;;4158264;28;20793;-49
2022/03/08 08:58:51;;;;;;;30.07;13.70;;;4.70;96.40;;;;;;4157415;28;20623;-65
2022/03/08 09:00:52;;;;;;;26.30;12.50;;;4.90;96.20;;;;;;4158034;28;20817;-47
2022/03/08 09:02:53;;;;;;;32.23;13.50;;;4.80;95.80;;;;;;4157355;28;20309;-60
2022/03/08 09:04:54;;;;;;;30.77;13.63;;;5.00;96.40;;;;;;4156869;28;20255;-63
2022/03/08 09:06:55;;;;;;;21.43;11.40;;;5.30;96.40;;;;;;4158670;28;20295;-52
2022/03/08 09:08:57;;;;;;;19.17;10.17;;;5.70;95.70;;;;;;4157571;28;20329;-66
2022/03/08 09:10:58;;;;;;;34.27;17.53;;;5.90;94.60;;;;;;4158319;28;20682;-48
2022/03/08 09:13:00;;;;;;;24.50;12.00;;;6.10;94.30;;;;;;4156971;28;20312;-61
2022/03/08 09:15:02;;;;;;;23.43;12.47;;;6.00;93.60;;;;;;4157843;28;20329;-53
2022/03/08 09:17:03;;;;;;;33.80;14.07;;;6.20;93.10;;;;;;4156878;28;20332;-53
2022/03/08 09:19:05;;;;;;;40.67;18.67;;;6.10;92.30;;;;;;4158323;28;20311;-60
2022/03/08 09:21:06;;;;;;;30.33;13.50;;;6.00;92.80;;;;;;4157550;28;20392;-62
2022/03/08 09:23:08;;;;;;;19.03;11.57;;;6.20;92.90;;;;;;4288852;22;20257;-49
2022/03/08 09:25:09;;;;;;;20.93;10.77;;;6.30;91.50;;;;;;4190475;28;20327;-49
2022/03/08 09:27:10;;;;;;;18.30;9.77;;;6.10;91.20;;;;;;4189987;28;20427;-61
2022/03/08 09:29:11;;;;;;;16.40;9.00;;;6.10;91.60;;;;;;4190732;28;20407;-59
2022/03/08 09:31:13;;;;;;;20.43;9.27;;;6.00;90.50;;;;;;4189383;28;20327;-61
2022/03/08 09:33:14;;;;;;;18.53;9.50;;;6.20;90.90;;;;;;4190149;28;20310;-47
2022/03/08 09:35:15;;;;;;;19.30;8.93;;;6.30;90.60;;;;;;4189016;28;20044;-59
2022/03/08 09:37:16;;;;;;;16.00;8.67;;;6.50;90.50;;;;;;4189896;28;20676;-48
2022/03/08 09:39:17;;;;;;;19.13;9.83;;;6.60;88.80;;;;;;4189211;28;20263;-50
2022/03/08 09:41:19;;;;;;;16.87;8.73;;;6.70;89.30;;;;;;4190430;28;20430;-63
2022/03/08 09:43:21;;;;;;;13.93;7.17;;;7.00;89.30;;;;;;4189192;28;20300;-60
2022/03/08 09:45:22;;;;;;;12.13;6.33;;;6.50;83.60;;;;;;4190772;28;20431;-57
2022/03/08 09:47:24;;;;;;;11.13;6.50;;;5.90;83.40;;;;;;4189292;28;20618;-58
2022/03/08 09:49:25;;;;;;;10.73;6.63;;;5.50;85.10;;;;;;4190573;28;20036;-65
2022/03/08 09:51:26;;;;;;;12.50;7.50;;;5.30;85.00;;;;;;4189701;28;20291;-55
2022/03/08 09:53:31;;;;;;;11.03;5.67;;;5.20;83.80;;;;;;4189705;28;20311;-62
2022/03/08 09:55:32;;;;;;;9.80;4.57;;;5.10;82.70;;;;;;4189544;28;20391;-49
2022/03/08 09:57:34;;;;;;;10.33;6.00;;;5.00;82.50;;;;;;4189385;28;20749;-50
2022/03/08 09:59:35;;;;;;;16.10;9.37;;;4.80;81.30;;;;;;4189600;28;20335;-65
2022/03/08 10:01:36;;;;;;;21.00;11.00;;;4.70;81.90;;;;;;4189120;28;20712;-63
2022/03/08 10:03:43;;;;;;;11.13;6.00;;;4.60;83.20;;;;;;4190621;28;20347;-45
2022/03/08 10:05:45;;;;;;;12.33;4.80;;;4.60;82.50;;;;;;4170884;28;20273;-57
2022/03/08 10:08:19;;;;;;;11.10;5.07;;;4.50;82.40;;;;;;4190228;28;20289;-56
2022/03/08 10:10:20;;;;;;;8.33;4.63;;;4.50;80.30;;;;;;4188810;28;20273;-51
2022/03/08 10:12:21;;;;;;;8.70;4.57;;;4.50;81.80;;;;;;4189493;28;20277;-57
2022/03/08 10:14:37;;;;;;;8.60;5.10;;;4.70;81.30;;;;;;4189446;28;20339;-55
2022/03/08 10:16:42;;;;;;;9.90;5.10;;;4.80;80.60;;;;;;4189880;28;20792;-62
2022/03/08 10:18:47;;;;;;;14.17;5.03;;;5.10;81.10;;;;;;4188641;28;20315;-56
2022/03/08 10:20:48;;;;;;;10.00;4.93;;;5.20;80.00;;;;;;4190657;28;20265;-57
2022/03/08 10:22:49;;;;;;;11.50;5.33;;;5.20;79.50;;;;;;4189288;28;20675;-51
2022/03/08 10:24:51;;;;;;;9.57;5.17;;;5.40;79.10;;;;;;4189985;28;20423;-62
2022/03/08 10:27:03;;;;;;;23.07;6.13;;;5.10;77.00;;;;;;4188542;28;20300;-59
2022/03/08 10:29:04;;;;;;;21.93;5.47;;;5.00;78.00;;;;;;4189864;28;20265;-61
2022/03/08 10:31:13;;;;;;;10.67;2.97;;;5.10;78.70;;;;;;4188546;28;20314;-65
2022/03/08 10:33:19;;;;;;;26.10;5.50;;;4.90;75.40;;;;;;4189750;28;20276;-57
2022/03/08 10:35:28;;;;;;;10.77;3.10;;;4.90;76.00;;;;;;4472629;22;20269;-46